Impacts METAR Board
IDs:

KCLE - Cleveland/Hopkins In, OH, US

Updated at: 0100 UTC 18 Aug 2018
Potential Impact None Slight Moderate High
Time 17/13Z 17/14Z 17/15Z 17/16Z 17/17Z 17/18Z 17/19Z 17/20Z 17/21Z 17/22Z 17/23Z 18/00Z 18/01Z
Temp78 78 79 80 79 77 75 76 76 77 78 77 75
Dewpt72 72 72 72 71 72 70 71 70 70 70 71 69
Altim30.00 30.00 29.99 29.99 29.99 29.99 29.96 29.96 29.96 29.94 29.94 29.95 29.96
VIS10 10 10 10 10 10 10 10 10 10 10 10 10
CIG38 20 200 200 110 200 110 150 110 150 150 75 110
CoverOVCOVCOVCOVCOVCOVCOVCOVCOVCOVCOVCOVCOVC
FltCatVFRMVFRVFRVFRVFRVFRVFRVFRVFRVFRVFRVFRVFR
WX-------------RA----------TS
WDir240250230250200190190220210190200210230
WSpd10 10 6 6 6 8 8 8 9 9 9 7 5
WGst-- -- -- -- -- -- -- -- -- -- -- -- --
Raw hourly METARs
KCLE 171251Z 24010KT 10SM FEW020 SCT026 BKN038 OVC200 26/22 A3000 RMK AO2 RAE1154 SLP153 P0000 T02560222 $
KCLE 171351Z 25010KT 10SM SCT014 BKN020 OVC029 26/22 A3000 RMK AO2 SLP152 T02560222 $
KCLE 171451Z 23006KT 10SM SCT017 SCT029 OVC200 26/22 A2999 RMK AO2 SLP148 60000 T02610222 58001 $
KCLE 171551Z 25006KT 10SM SCT018 OVC200 27/22 A2999 RMK AO2 SLP149 T02670222 $
KCLE 171651Z 20006KT 10SM FEW020 BKN110 OVC200 26/22 A2999 RMK AO2 LTG DSNT S AND SW SLP148 T02610217 $
KCLE 171751Z 19008KT 10SM FEW034 SCT100 OVC200 25/22 A2999 RMK AO2 LTG DSNT S RAB1659E10 SLP148 P0000 60000 T02500222 10267 20239 58001
KCLE 171851Z 19008KT 10SM -RA FEW030 BKN110 OVC200 24/21 A2996 RMK AO2 LTG DSNT SE RAB30 SLP140 P0002 T02390211
KCLE 171951Z 22008KT 10SM FEW030 BKN150 OVC200 24/22 A2996 RMK AO2 LTG DSNT NW RAE15 SLP138 P0001 T02440217
KCLE 172051Z 21009KT 10SM FEW030 BKN110 BKN150 OVC200 24/21 A2996 RMK AO2 LTG DSNT N SLP140 60003 T02440211 55007
KCLE 172151Z 19009KT 10SM FEW030 BKN150 OVC200 25/21 A2994 RMK AO2 SLP133 T02500211
KCLE 172251Z 20009KT 10SM FEW030 BKN150 OVC250 26/21 A2994 RMK AO2 LTG DSNT W SLP134 T02560211
KCLE 172351Z 21007KT 10SM BKN075 BKN150 OVC250 25/22 A2995 RMK AO2 SLP136 60003 T02500217 10261 20239 55004
KCLE 180104Z 23005KT 10SM TS FEW030CB FEW080 OVC110 24/21 A2996 RMK AO2 LTG DSNT S AND SW TSB03 OCNL LTG ICCC S-W TS S-W MOV NE T02390206



Page loaded:  01:28 UTC  |   06:28 PM Pacific  |   07:28 PM Mountain  |   08:28 PM Central  |   09:28 PM Eastern

 

ADVISORIES

FORECASTS

FORECASTS

OBSERVATIONS

USER TOOLS

ABOUT US